Hovedside
METAR-TAF:

METAR-TAF

Lufthavner :

Cap Skirring, Senegal

breddegrad: 12-24N, lengdegrad: 016-45W, høyde over havet: 16 m

Gjeldene værobservasjon

Denne rapporten ble laget for 33 minutter siden, klokken 10:00 UTC
Vind 4 kt fra Vest
Temperatur 27°C
Luftfuktighet 79%
Trykk 1013 hPa
Sikt 10 km eller mer
Få skyer i en høyde av 1300 ft

METAR: GOGS 091000Z 26004KT 9999 FEW013 27/23 Q1013

Tid: 10:33 (10:33 UTC)

Varsel

Denne rapporten ble laget for 5 timer og 33 minutter siden, klokken 05:00 UTC
Varsel gyldig fra 09. klokken 06 UTC til 10. klokken 06 UTC
Vind 6 kt fra Vest
Sikt 10 km eller mer
Spredte skyer i en høyde av 1300 ft
Sannsynlighet 40% :
Midlertidig
fra 09. klokken 14 UTC til 09. klokken 20 UTC
Sikt: 4000 m
Brutte skyer i en høyde av 1200 ft
Få skyer i en høyde av 3000 ft, Bygeskyer.
torden, regn

TAF: GOGS 090500Z 0906/1006 26006KT 9999 SCT013 PROB40 TEMPO 0914/0920 4000 TSRA BKN012 FEW030CB

Værobservasjoner og værvarsel for over 4000 flyplasser (METAR- og TAF-rapporter).

Tilgjengelige stasjoner er representert av de røde og gule prikkene på kartet.

Hold musepekeren over prikken for å se navnet på stasjonen.

Klikk så for å se værobservasjoner og -varsler.

For å forandre kartet kan du klikke på den grønne knappen med svart kryss for å zoome inn, på den grønne knappen med strek for å zoome ut, eller på de grønne pilene for å se tilstøtende kart.


METAR-TAF: